Reecon Whale — 9HA2885 — position and weather

sailwx.info

Track history (hours):
 
Tides and Currents Weather Stations Pressure Air Temp Water Temp Dewpoint Dewpoint Depression Visibility Wind Speed Wind Dir Waves Ship Positions

Reecon Whale

Last reported at 2014-Jul-21 10:22 UTC. Time now 2014-Jul-23 05:44 UTC.
Position N 39°10' W 009°50'.

Length 145 m; draft 8.1 m.

Type: Ship. MMSI: 256579000.

Date/timePositionNaut miles runAvg speedWind from/ knotsBaromVisibWave heightAir tempDewpointWater temp
2014-Jul-21 10:22N 39°10' W 009°50'2812.2
2014-Jul-21 08:03N 38°42' W 009°51'812.1
2014-Jul-21 07:24N 38°34' W 009°48'1112.4
2014-Jul-21 06:33N 38°24' W 009°46'1212.4
2014-Jul-21 05:33N 38°12' W 009°42'1211.7
2014-Jul-21 04:33N 38°01' W 009°38'1111.6
2014-Jul-21 03:33N 37°49' W 009°35'1211.5
2014-Jul-21 02:33N 37°38' W 009°32'1111.4
2014-Jul-21 01:33N 37°27' W 009°29'1212.0
2014-Jul-21 00:33N 37°15' W 009°26'1212.0
2014-Jul-20 23:33N 37°04' W 009°22'1211.8
2014-Jul-20 22:33N 36°52' W 009°18'1211.8
2014-Jul-20 21:33N 36°44' W 009°08'1211.8
2014-Jul-20 20:33N 36°40' W 008°54'1111.2
2014-Jul-20 19:33N 36°36' W 008°41'1110.8
2014-Jul-20 18:33N 36°33' W 008°28'1211.5
2014-Jul-20 17:32N 36°30' W 008°14'1111.4
2014-Jul-20 16:33N 36°27' W 008°00'  
2014-Jul-18 10:10N 36°03' W 005°22'8414.4
2014-Jul-18 04:17N 36°05' W 007°06'1114.8
2014-Jul-18 03:32N 36°08' W 007°19'1514.8
2014-Jul-18 02:30N 36°12' W 007°38'1515.7
2014-Jul-18 01:33N 36°16' W 007°55'1515.2
2014-Jul-18 00:33N 36°20' W 008°14'1915.2
2014-Jul-17 23:16N 36°25' W 008°37'1115.2
2014-Jul-17 22:33N 36°28' W 008°50'1515.3
2014-Jul-17 21:33N 36°32' W 009°08'1414.2
2014-Jul-17 20:33N 36°39' W 009°24'1514.5
2014-Jul-17 19:33N 36°51' W 009°34'1414.4
2014-Jul-17 18:33N 37°05' W 009°35'1514.8
2014-Jul-17 17:33N 37°20' W 009°33'1515.0
2014-Jul-17 16:33N 37°35' W 009°31'1514.7
2014-Jul-17 15:33N 37°50' W 009°29'1414.3
2014-Jul-17 14:33N 38°04' W 009°28'1414.3
2014-Jul-17 13:33N 38°18' W 009°26'1414.6
2014-Jul-17 12:33N 38°33' W 009°24'1212.0
2014-Jul-17 11:34N 38°41' W 009°13'3 2.8
2014-Jul-17 10:33N 38°42' W 009°10'0 0.0
2014-Jul-17 09:33N 38°42' W 009°10'0 0.0
2014-Jul-17 08:33N 38°42' W 009°10'0 0.0
2014-Jul-17 07:33N 38°42' W 009°10'0 0.0
2014-Jul-17 06:33N 38°42' W 009°10'0 0.0
2014-Jul-17 05:33N 38°42' W 009°10'0 0.0
2014-Jul-17 04:33N 38°42' W 009°10'0 0.0
2014-Jul-17 03:33N 38°42' W 009°10'0 0.0
2014-Jul-17 02:33N 38°42' W 009°10'0 0.0
2014-Jul-17 01:33N 38°42' W 009°10'0 0.0
2014-Jul-17 00:33N 38°42' W 009°10'0 0.0
2014-Jul-16 23:33N 38°42' W 009°10'0 0.0
2014-Jul-16 22:30N 38°42' W 009°10'0 0.0
2014-Jul-16 21:33N 38°42' W 009°10'0 0.0
2014-Jul-16 20:33N 38°42' W 009°10'0 0.0
2014-Jul-16 19:33N 38°42' W 009°10'0 0.0
2014-Jul-16 18:33N 38°42' W 009°10'0 0.0
2014-Jul-16 17:30N 38°42' W 009°10'0 0.0
2014-Jul-16 16:33N 38°42' W 009°10'0 0.0
2014-Jul-16 15:33N 38°42' W 009°10'0 0.0
2014-Jul-16 14:33N 38°42' W 009°10'0 0.0
2014-Jul-16 13:33N 38°42' W 009°10'0 0.0
2014-Jul-16 12:33N 38°42' W 009°10'0 0.0
2014-Jul-16 11:30N 38°42' W 009°10'0 0.0
2014-Jul-16 10:33N 38°42' W 009°10'0 0.0
2014-Jul-16 09:33N 38°42' W 009°10'0 0.0
2014-Jul-16 08:33N 38°42' W 009°10'4 4.2
2014-Jul-16 07:33N 38°41' W 009°15'9 9.2
2014-Jul-16 06:33N 38°37' W 009°26'1110.9
2014-Jul-16 05:32N 38°38' W 009°40'1010.3
2014-Jul-16 04:33N 38°48' W 009°44'1111.5
2014-Jul-16 03:33N 38°59' W 009°44'1111.4
2014-Jul-16 02:33N 39°11' W 009°45'1211.7
2014-Jul-16 01:33N 39°23' W 009°44'3611.6
2014-Jul-15 22:25N 39°57' W 009°29'1111.8
2014-Jul-15 21:30N 40°07' W 009°23'1111.8
2014-Jul-15 20:33N 40°17' W 009°17'81 1.8
2014-Jul-13 23:24N 38°60' W 009°51'910.8
2014-Jul-13 22:33N 38°51' W 009°51'1110.8
2014-Jul-13 21:31N 38°40' W 009°50'1010.4
2014-Jul-13 20:33N 38°30' W 009°47'1010.4
2014-Jul-13 19:33N 38°20' W 009°44'1110.5
2014-Jul-13 18:33N 38°09' W 009°41'1010.4
2014-Jul-13 17:33N 37°59' W 009°37'10 9.8
2014-Jul-13 16:33N 37°50' W 009°34'10 9.7
2014-Jul-13 15:34N 37°41' W 009°32'1010.0
2014-Jul-13 14:34N 37°31' W 009°29'1010.0
2014-Jul-13 13:33N 37°21' W 009°26'10 9.6
2014-Jul-13 12:33N 37°12' W 009°25'1110.9
2014-Jul-13 11:34N 37°01' W 009°21'1010.5
2014-Jul-13 10:33N 36°51' W 009°17'1110.6
2014-Jul-13 09:34N 36°44' W 009°08'1110.7
2014-Jul-13 08:33N 36°40' W 008°55'1111.0
2014-Jul-13 07:34N 36°37' W 008°42'1111.1
2014-Jul-13 06:33N 36°33' W 008°29'1211.7
2014-Jul-13 05:33N 36°30' W 008°15'1211.9
2014-Jul-13 04:33N 36°26' W 008°01'1212.1
2014-Jul-13 03:32N 36°22' W 007°46'1212.1
2014-Jul-13 02:33N 36°19' W 007°32'1211.9
2014-Jul-13 01:33N 36°15' W 007°18'1211.6
2014-Jul-13 00:33N 36°12' W 007°04'1511.8
2014-Jul-12 23:17N 36°07' W 006°47'912.4
2014-Jul-12 22:33N 36°04' W 006°36'1312.8
2014-Jul-12 21:33N 36°00' W 006°21'3511.8
2014-Jul-12 18:34N 35°57' W 005°37'11 8.2
2014-Jul-12 17:10N 36°02' W 005°24'7 9.6
2014-Jul-12 16:27N 36°09' W 005°25'1 1.3
2014-Jul-12 15:30N 36°08' W 005°26'0 0.0
2014-Jul-12 14:27N 36°08' W 005°26'0 0.0
2014-Jul-12 03:29N 36°08' W 005°26'0 0.0
2014-Jul-11 18:30N 36°08' W 005°26'10 5.1
2014-Jul-11 16:33N 35°58' W 005°25'1917.7
2014-Jul-11 15:29N 35°55' W 005°48'4916.9
2014-Jul-11 12:33N 36°00' W 006°48'1716.3
2014-Jul-11 11:32N 36°05' W 007°08'1616.1
2014-Jul-11 10:33N 36°10' W 007°27'  
Track history (hours):
 
Tides and Currents Weather Stations Pressure Air Temp Water Temp Dewpoint Dewpoint Depression Visibility Wind Speed Wind Dir Waves Ship Positions

Reecon Whale

Last reported at 2014-Jul-21 10:22 UTC. Time now 2014-Jul-23 05:44 UTC.
Position N 39°10' W 009°50'.

Length 145 m; draft 8.1 m.

Type: Ship. MMSI: 256579000.

Date/timePositionNaut miles runAvg speedWind from/ knotsBaromVisibWave heightAir tempDewpointWater temp
2014-Jul-21 10:22N 39°10' W 009°50'2812.2
2014-Jul-21 08:03N 38°42' W 009°51'812.1
2014-Jul-21 07:24N 38°34' W 009°48'1112.4
2014-Jul-21 06:33N 38°24' W 009°46'1212.4
2014-Jul-21 05:33N 38°12' W 009°42'1211.7
2014-Jul-21 04:33N 38°01' W 009°38'1111.6
2014-Jul-21 03:33N 37°49' W 009°35'1211.5
2014-Jul-21 02:33N 37°38' W 009°32'1111.4
2014-Jul-21 01:33N 37°27' W 009°29'1212.0
2014-Jul-21 00:33N 37°15' W 009°26'1212.0
2014-Jul-20 23:33N 37°04' W 009°22'1211.8
2014-Jul-20 22:33N 36°52' W 009°18'1211.8
2014-Jul-20 21:33N 36°44' W 009°08'1211.8
2014-Jul-20 20:33N 36°40' W 008°54'1111.2
2014-Jul-20 19:33N 36°36' W 008°41'1110.8
2014-Jul-20 18:33N 36°33' W 008°28'1211.5
2014-Jul-20 17:32N 36°30' W 008°14'1111.4
2014-Jul-20 16:33N 36°27' W 008°00'  
2014-Jul-18 10:10N 36°03' W 005°22'8414.4
2014-Jul-18 04:17N 36°05' W 007°06'1114.8
2014-Jul-18 03:32N 36°08' W 007°19'1514.8
2014-Jul-18 02:30N 36°12' W 007°38'1515.7
2014-Jul-18 01:33N 36°16' W 007°55'1515.2
2014-Jul-18 00:33N 36°20' W 008°14'1915.2
2014-Jul-17 23:16N 36°25' W 008°37'1115.2
2014-Jul-17 22:33N 36°28' W 008°50'1515.3
2014-Jul-17 21:33N 36°32' W 009°08'1414.2
2014-Jul-17 20:33N 36°39' W 009°24'1514.5
2014-Jul-17 19:33N 36°51' W 009°34'1414.4
2014-Jul-17 18:33N 37°05' W 009°35'1514.8
2014-Jul-17 17:33N 37°20' W 009°33'1515.0
2014-Jul-17 16:33N 37°35' W 009°31'1514.7
2014-Jul-17 15:33N 37°50' W 009°29'1414.3
2014-Jul-17 14:33N 38°04' W 009°28'1414.3
2014-Jul-17 13:33N 38°18' W 009°26'1414.6
2014-Jul-17 12:33N 38°33' W 009°24'1212.0
2014-Jul-17 11:34N 38°41' W 009°13'3 2.8
2014-Jul-17 10:33N 38°42' W 009°10'0 0.0
2014-Jul-17 09:33N 38°42' W 009°10'0 0.0
2014-Jul-17 08:33N 38°42' W 009°10'0 0.0
2014-Jul-17 07:33N 38°42' W 009°10'0 0.0
2014-Jul-17 06:33N 38°42' W 009°10'0 0.0
2014-Jul-17 05:33N 38°42' W 009°10'0 0.0
2014-Jul-17 04:33N 38°42' W 009°10'0 0.0
2014-Jul-17 03:33N 38°42' W 009°10'0 0.0
2014-Jul-17 02:33N 38°42' W 009°10'0 0.0
2014-Jul-17 01:33N 38°42' W 009°10'0 0.0
2014-Jul-17 00:33N 38°42' W 009°10'0 0.0
2014-Jul-16 23:33N 38°42' W 009°10'0 0.0
2014-Jul-16 22:30N 38°42' W 009°10'0 0.0
2014-Jul-16 21:33N 38°42' W 009°10'0 0.0
2014-Jul-16 20:33N 38°42' W 009°10'0 0.0
2014-Jul-16 19:33N 38°42' W 009°10'0 0.0
2014-Jul-16 18:33N 38°42' W 009°10'0 0.0
2014-Jul-16 17:30N 38°42' W 009°10'0 0.0
2014-Jul-16 16:33N 38°42' W 009°10'0 0.0
2014-Jul-16 15:33N 38°42' W 009°10'0 0.0
2014-Jul-16 14:33N 38°42' W 009°10'0 0.0
2014-Jul-16 13:33N 38°42' W 009°10'0 0.0
2014-Jul-16 12:33N 38°42' W 009°10'0 0.0
2014-Jul-16 11:30N 38°42' W 009°10'0 0.0
2014-Jul-16 10:33N 38°42' W 009°10'0 0.0
2014-Jul-16 09:33N 38°42' W 009°10'0 0.0
2014-Jul-16 08:33N 38°42' W 009°10'4 4.2
2014-Jul-16 07:33N 38°41' W 009°15'9 9.2
2014-Jul-16 06:33N 38°37' W 009°26'1110.9
2014-Jul-16 05:32N 38°38' W 009°40'1010.3
2014-Jul-16 04:33N 38°48' W 009°44'1111.5
2014-Jul-16 03:33N 38°59' W 009°44'1111.4
2014-Jul-16 02:33N 39°11' W 009°45'1211.7
2014-Jul-16 01:33N 39°23' W 009°44'3611.6
2014-Jul-15 22:25N 39°57' W 009°29'1111.8
2014-Jul-15 21:30N 40°07' W 009°23'1111.8
2014-Jul-15 20:33N 40°17' W 009°17'81 1.8
2014-Jul-13 23:24N 38°60' W 009°51'910.8
2014-Jul-13 22:33N 38°51' W 009°51'1110.8
2014-Jul-13 21:31N 38°40' W 009°50'1010.4
2014-Jul-13 20:33N 38°30' W 009°47'1010.4
2014-Jul-13 19:33N 38°20' W 009°44'1110.5
2014-Jul-13 18:33N 38°09' W 009°41'1010.4
2014-Jul-13 17:33N 37°59' W 009°37'10 9.8
2014-Jul-13 16:33N 37°50' W 009°34'10 9.7
2014-Jul-13 15:34N 37°41' W 009°32'1010.0
2014-Jul-13 14:34N 37°31' W 009°29'1010.0
2014-Jul-13 13:33N 37°21' W 009°26'10 9.6
2014-Jul-13 12:33N 37°12' W 009°25'1110.9
2014-Jul-13 11:34N 37°01' W 009°21'1010.5
2014-Jul-13 10:33N 36°51' W 009°17'1110.6
2014-Jul-13 09:34N 36°44' W 009°08'1110.7
2014-Jul-13 08:33N 36°40' W 008°55'1111.0
2014-Jul-13 07:34N 36°37' W 008°42'1111.1
2014-Jul-13 06:33N 36°33' W 008°29'1211.7
2014-Jul-13 05:33N 36°30' W 008°15'1211.9
2014-Jul-13 04:33N 36°26' W 008°01'1212.1
2014-Jul-13 03:32N 36°22' W 007°46'1212.1
2014-Jul-13 02:33N 36°19' W 007°32'1211.9
2014-Jul-13 01:33N 36°15' W 007°18'1211.6
2014-Jul-13 00:33N 36°12' W 007°04'1511.8
2014-Jul-12 23:17N 36°07' W 006°47'912.4
2014-Jul-12 22:33N 36°04' W 006°36'1312.8
2014-Jul-12 21:33N 36°00' W 006°21'3511.8
2014-Jul-12 18:34N 35°57' W 005°37'11 8.2
2014-Jul-12 17:10N 36°02' W 005°24'7 9.6
2014-Jul-12 16:27N 36°09' W 005°25'1 1.3
2014-Jul-12 15:30N 36°08' W 005°26'0 0.0
2014-Jul-12 14:27N 36°08' W 005°26'0 0.0
2014-Jul-12 03:29N 36°08' W 005°26'0 0.0
2014-Jul-11 18:30N 36°08' W 005°26'10 5.1
2014-Jul-11 16:33N 35°58' W 005°25'1917.7
2014-Jul-11 15:29N 35°55' W 005°48'4916.9
2014-Jul-11 12:33N 36°00' W 006°48'1716.3
2014-Jul-11 11:32N 36°05' W 007°08'1616.1
2014-Jul-11 10:33N 36°10' W 007°27'  

Dump ship's entire track history